Terminal Aerodrome Forecast
Issued by NWS

Home | Current Version | Previous Version | Text Only | Print | Product List | Glossary On
Versions: 1 2 3 4 5 6 7 8 9 10 11 12 13 14 15 16 17 18 19
000
FTUS46 KSGX 220100 AAE
TAFPSP
TAF AMD
KPSP 220119Z 2201/2224 16010KT P6SM BKN100 BKN150
     FM220230 VRB06KT P6SM SCT100 BKN150
     FM222300 33010KT P6SM SCT100=

USA.gov is the U.S. government's official web portal to all federal, state and local government web resources and services.